sensor_id;sensor_type;location;lat;lon;timestamp;P1;durP1;ratioP1;P2;durP2;ratioP2
15498;SDS011;7851;52.260;6.030;2022-11-15T00:02:47;24.6;;;18.5;;
15498;SDS011;7851;52.260;6.030;2022-11-15T00:02:47;23.7;;;18.5;;
15498;SDS011;7851;52.260;6.030;2022-11-15T00:02:47;25.6;;;18;;
15498;SDS011;7851;52.260;6.030;2022-11-15T00:03:27;21.7;;;17.6;;
15498;SDS011;7851;52.260;6.030;2022-11-15T00:04:27;21.3;;;18.2;;
15498;SDS011;7851;52.260;6.030;2022-11-15T00:05:27;21;;;17.4;;
15498;SDS011;7851;52.260;6.030;2022-11-15T00:06:27;20.7;;;17.1;;
15498;SDS011;7851;52.260;6.030;2022-11-15T00:07:27;22.3;;;17.7;;
15498;SDS011;7851;52.260;6.030;2022-11-15T00:08:28;24.4;;;18.4;;
15498;SDS011;7851;52.260;6.030;2022-11-15T00:09:27;24.1;;;18.2;;
15498;SDS011;7851;52.260;6.030;2022-11-15T00:10:27;22.7;;;17.4;;
15498;SDS011;7851;52.260;6.030;2022-11-15T00:11:27;24;;;18.2;;
15498;SDS011;7851;52.260;6.030;2022-11-15T00:12:27;20.2;;;17.6;;
15498;SDS011;7851;52.260;6.030;2022-11-15T00:13:27;23.9;;;17.9;;
15498;SDS011;7851;52.260;6.030;2022-11-15T00:14:27;19.7;;;17.4;;
15498;SDS011;7851;52.260;6.030;2022-11-15T00:15:27;23.9;;;18.9;;
15498;SDS011;7851;52.260;6.030;2022-11-15T00:16:27;23.5;;;17.4;;
15498;SDS011;7851;52.260;6.030;2022-11-15T00:17:27;19.6;;;17.5;;
15498;SDS011;7851;52.260;6.030;2022-11-15T00:18:27;20.8;;;17.7;;
15498;SDS011;7851;52.260;6.030;2022-11-15T00:19:27;23.6;;;18.2;;
15498;SDS011;7851;52.260;6.030;2022-11-15T00:20:27;24;;;18.4;;
15498;SDS011;7851;52.260;6.030;2022-11-15T00:21:27;22;;;18.4;;
15498;SDS011;7851;52.260;6.030;2022-11-15T00:22:30;22;;;18.4;;
15498;SDS011;7851;52.260;6.030;2022-11-15T00:23:27;23.7;;;18.1;;
15498;SDS011;7851;52.260;6.030;2022-11-15T00:24:27;22.9;;;18.3;;
15498;SDS011;7851;52.260;6.030;2022-11-15T00:25:27;25.7;;;19.6;;
15498;SDS011;7851;52.260;6.030;2022-11-15T00:26:27;24.8;;;17.9;;
15498;SDS011;7851;52.260;6.030;2022-11-15T00:27:27;24.9;;;18.4;;
15498;SDS011;7851;52.260;6.030;2022-11-15T00:28:27;25.6;;;19.3;;
15498;SDS011;7851;52.260;6.030;2022-11-15T00:29:27;27;;;20;;
15498;SDS011;7851;52.260;6.030;2022-11-15T00:30:27;25.1;;;19.7;;
15498;SDS011;7851;52.260;6.030;2022-11-15T00:31:27;25.1;;;20;;
15498;SDS011;7851;52.260;6.030;2022-11-15T00:32:30;24.4;;;20.1;;
15498;SDS011;7851;52.260;6.030;2022-11-15T00:33:27;25.7;;;20.4;;
15498;SDS011;7851;52.260;6.030;2022-11-15T00:34:27;26;;;20.1;;
15498;SDS011;7851;52.260;6.030;2022-11-15T00:35:27;33.2;;;22.1;;
15498;SDS011;7851;52.260;6.030;2022-11-15T00:36:27;31.8;;;21.8;;
15498;SDS011;7851;52.260;6.030;2022-11-15T00:37:27;28.7;;;21.3;;
15498;SDS011;7851;52.260;6.030;2022-11-15T00:38:29;27.9;;;21;;
15498;SDS011;7851;52.260;6.030;2022-11-15T00:39:27;27.9;;;20.9;;
15498;SDS011;7851;52.260;6.030;2022-11-15T00:40:27;32.6;;;21.7;;
15498;SDS011;7851;52.260;6.030;2022-11-15T00:41:27;38.1;;;22.2;;
15498;SDS011;7851;52.260;6.030;2022-11-15T00:42:27;29.6;;;20.8;;
15498;SDS011;7851;52.260;6.030;2022-11-15T00:43:27;28.4;;;21;;
15498;SDS011;7851;52.260;6.030;2022-11-15T00:44:27;29.9;;;21.8;;
15498;SDS011;7851;52.260;6.030;2022-11-15T00:45:27;28.2;;;21.2;;
15498;SDS011;7851;52.260;6.030;2022-11-15T00:46:27;30.3;;;21.7;;
15498;SDS011;7851;52.260;6.030;2022-11-15T00:47:27;31.5;;;22.7;;
15498;SDS011;7851;52.260;6.030;2022-11-15T00:48:27;33.5;;;22.5;;
15498;SDS011;7851;52.260;6.030;2022-11-15T00:49:30;38.6;;;23.4;;
15498;SDS011;7851;52.260;6.030;2022-11-15T00:50:30;31.2;;;22.3;;
15498;SDS011;7851;52.260;6.030;2022-11-15T00:51:31;33.6;;;22.5;;
15498;SDS011;7851;52.260;6.030;2022-11-15T00:52:30;32;;;23.1;;
15498;SDS011;7851;52.260;6.030;2022-11-15T00:53:30;31.8;;;23.7;;
15498;SDS011;7851;52.260;6.030;2022-11-15T00:54:30;33.7;;;23.4;;
15498;SDS011;7851;52.260;6.030;2022-11-15T00:55:30;40.4;;;24.3;;
15498;SDS011;7851;52.260;6.030;2022-11-15T00:56:30;33.5;;;21.5;;
15498;SDS011;7851;52.260;6.030;2022-11-15T00:57:33;28.2;;;23.1;;
15498;SDS011;7851;52.260;6.030;2022-11-15T00:58:33;32.2;;;23.4;;
15498;SDS011;7851;52.260;6.030;2022-11-15T00:59:33;37.2;;;24.5;;
15498;SDS011;7851;52.260;6.030;2022-11-15T01:00:33;34.7;;;23.4;;
15498;SDS011;7851;52.260;6.030;2022-11-15T01:01:33;36.3;;;24.1;;
15498;SDS011;7851;52.260;6.030;2022-11-15T01:02:33;32.4;;;23.4;;
15498;SDS011;7851;52.260;6.030;2022-11-15T01:03:33;32;;;22.6;;
15498;SDS011;7851;52.260;6.030;2022-11-15T01:04:33;36.6;;;25;;
15498;SDS011;7851;52.260;6.030;2022-11-15T01:05:33;39;;;23.6;;
15498;SDS011;7851;52.260;6.030;2022-11-15T01:06:33;30.7;;;22.6;;
15498;SDS011;7851;52.260;6.030;2022-11-15T01:07:33;36.3;;;25.1;;
15498;SDS011;7851;52.260;6.030;2022-11-15T01:08:33;36.4;;;24.1;;
15498;SDS011;7851;52.260;6.030;2022-11-15T01:09:33;34.7;;;22.9;;
15498;SDS011;7851;52.260;6.030;2022-11-15T01:10:33;38.5;;;24.1;;
15498;SDS011;7851;52.260;6.030;2022-11-15T01:11:36;37.1;;;25.1;;
15498;SDS011;7851;52.260;6.030;2022-11-15T01:12:33;29.9;;;23.3;;
15498;SDS011;7851;52.260;6.030;2022-11-15T01:13:33;39.2;;;26.2;;
15498;SDS011;7851;52.260;6.030;2022-11-15T01:14:33;42.4;;;25.8;;
15498;SDS011;7851;52.260;6.030;2022-11-15T01:15:33;30.4;;;22.8;;
15498;SDS011;7851;52.260;6.030;2022-11-15T01:16:33;32.2;;;23.9;;
15498;SDS011;7851;52.260;6.030;2022-11-15T01:17:33;33.8;;;25;;
15498;SDS011;7851;52.260;6.030;2022-11-15T01:18:33;41.2;;;25.9;;
15498;SDS011;7851;52.260;6.030;2022-11-15T01:19:33;39.3;;;25.4;;
15498;SDS011;7851;52.260;6.030;2022-11-15T01:20:33;30.8;;;24;;
15498;SDS011;7851;52.260;6.030;2022-11-15T01:21:33;38.1;;;24.2;;
15498;SDS011;7851;52.260;6.030;2022-11-15T01:22:33;34.8;;;23.7;;
15498;SDS011;7851;52.260;6.030;2022-11-15T01:23:33;41.5;;;26.4;;
15498;SDS011;7851;52.260;6.030;2022-11-15T01:24:33;34.1;;;23.8;;
15498;SDS011;7851;52.260;6.030;2022-11-15T01:25:36;35.8;;;26.2;;
15498;SDS011;7851;52.260;6.030;2022-11-15T01:26:36;40.1;;;26.4;;
15498;SDS011;7851;52.260;6.030;2022-11-15T01:27:36;38.3;;;25.9;;
15498;SDS011;7851;52.260;6.030;2022-11-15T01:28:37;29.6;;;22.7;;
15498;SDS011;7851;52.260;6.030;2022-11-15T01:29:36;35.3;;;23.5;;
15498;SDS011;7851;52.260;6.030;2022-11-15T01:30:36;36;;;25.7;;
15498;SDS011;7851;52.260;6.030;2022-11-15T01:31:36;38.3;;;25.4;;
15498;SDS011;7851;52.260;6.030;2022-11-15T01:32:36;44.6;;;26.2;;
15498;SDS011;7851;52.260;6.030;2022-11-15T01:33:36;41.7;;;25.9;;
15498;SDS011;7851;52.260;6.030;2022-11-15T01:34:36;36.9;;;25.6;;
15498;SDS011;7851;52.260;6.030;2022-11-15T01:35:38;37.1;;;25;;
15498;SDS011;7851;52.260;6.030;2022-11-15T01:36:38;36.8;;;26.9;;
15498;SDS011;7851;52.260;6.030;2022-11-15T01:37:36;47;;;29;;
15498;SDS011;7851;52.260;6.030;2022-11-15T01:38:36;37;;;25.6;;
15498;SDS011;7851;52.260;6.030;2022-11-15T01:39:36;50.8;;;28.4;;
15498;SDS011;7851;52.260;6.030;2022-11-15T01:40:36;40.2;;;27.9;;
15498;SDS011;7851;52.260;6.030;2022-11-15T01:41:36;37.3;;;26.8;;
15498;SDS011;7851;52.260;6.030;2022-11-15T01:42:36;43.9;;;27.8;;
15498;SDS011;7851;52.260;6.030;2022-11-15T01:43:36;37.6;;;28.1;;
15498;SDS011;7851;52.260;6.030;2022-11-15T01:44:39;50.8;;;29.7;;
15498;SDS011;7851;52.260;6.030;2022-11-15T01:45:36;47.2;;;29.9;;
15498;SDS011;7851;52.260;6.030;2022-11-15T01:46:36;31.5;;;26.9;;
15498;SDS011;7851;52.260;6.030;2022-11-15T01:47:37;42.2;;;30.8;;
15498;SDS011;7851;52.260;6.030;2022-11-15T01:48:36;40.8;;;29;;
15498;SDS011;7851;52.260;6.030;2022-11-15T01:49:37;38.9;;;29.4;;
15498;SDS011;7851;52.260;6.030;2022-11-15T01:50:36;51.3;;;30.3;;
15498;SDS011;7851;52.260;6.030;2022-11-15T01:51:36;49.3;;;30.6;;
15498;SDS011;7851;52.260;6.030;2022-11-15T01:52:36;49.1;;;33.1;;
15498;SDS011;7851;52.260;6.030;2022-11-15T01:53:36;53.4;;;31.8;;
15498;SDS011;7851;52.260;6.030;2022-11-15T01:54:36;39.7;;;28.6;;
15498;SDS011;7851;52.260;6.030;2022-11-15T01:55:36;46.8;;;31.3;;
15498;SDS011;7851;52.260;6.030;2022-11-15T01:56:37;47;;;30.3;;
15498;SDS011;7851;52.260;6.030;2022-11-15T01:57:36;40.9;;;30.4;;
15498;SDS011;7851;52.260;6.030;2022-11-15T01:58:36;45.9;;;32.2;;
15498;SDS011;7851;52.260;6.030;2022-11-15T01:59:36;47.2;;;32.7;;
15498;SDS011;7851;52.260;6.030;2022-11-15T02:00:36;43;;;31;;
15498;SDS011;7851;52.260;6.030;2022-11-15T02:01:36;42;;;31.2;;
15498;SDS011;7851;52.260;6.030;2022-11-15T02:02:36;45.3;;;30.8;;
15498;SDS011;7851;52.260;6.030;2022-11-15T02:03:39;44.7;;;32;;
15498;SDS011;7851;52.260;6.030;2022-11-15T02:04:37;55.3;;;32.6;;
15498;SDS011;7851;52.260;6.030;2022-11-15T02:05:36;41.6;;;30.9;;
15498;SDS011;7851;52.260;6.030;2022-11-15T02:06:36;46.8;;;32.2;;
15498;SDS011;7851;52.260;6.030;2022-11-15T02:07:36;48.7;;;32;;
15498;SDS011;7851;52.260;6.030;2022-11-15T02:08:36;45;;;31.6;;
15498;SDS011;7851;52.260;6.030;2022-11-15T02:09:36;46.3;;;33.3;;
15498;SDS011;7851;52.260;6.030;2022-11-15T02:10:36;40.2;;;30.6;;
15498;SDS011;7851;52.260;6.030;2022-11-15T02:11:36;44.1;;;29.8;;
15498;SDS011;7851;52.260;6.030;2022-11-15T02:12:36;47.5;;;32.8;;
15498;SDS011;7851;52.260;6.030;2022-11-15T02:13:36;47.2;;;32.7;;
15498;SDS011;7851;52.260;6.030;2022-11-15T02:14:36;49;;;34;;
15498;SDS011;7851;52.260;6.030;2022-11-15T02:15:37;40.5;;;30.9;;
15498;SDS011;7851;52.260;6.030;2022-11-15T02:16:39;46.9;;;31.7;;
15498;SDS011;7851;52.260;6.030;2022-11-15T02:17:40;45;;;32.2;;
15498;SDS011;7851;52.260;6.030;2022-11-15T02:18:37;37.2;;;28.9;;
15498;SDS011;7851;52.260;6.030;2022-11-15T02:19:41;39.9;;;30.5;;
15498;SDS011;7851;52.260;6.030;2022-11-15T02:20:41;44.4;;;30.3;;
15498;SDS011;7851;52.260;6.030;2022-11-15T02:21:36;42.4;;;30.2;;
15498;SDS011;7851;52.260;6.030;2022-11-15T02:22:37;42.6;;;31;;
15498;SDS011;7851;52.260;6.030;2022-11-15T02:23:46;39.6;;;28.8;;
15498;SDS011;7851;52.260;6.030;2022-11-15T02:25:37;41.3;;;31.2;;
15498;SDS011;7851;52.260;6.030;2022-11-15T02:26:58;42.9;;;30.9;;
15498;SDS011;7851;52.260;6.030;2022-11-15T02:27:54;43.7;;;31;;
15498;SDS011;7851;52.260;6.030;2022-11-15T02:28:53;39.3;;;29.7;;
15498;SDS011;7851;52.260;6.030;2022-11-15T02:29:41;34.9;;;28.5;;
15498;SDS011;7851;52.260;6.030;2022-11-15T02:30:37;41.6;;;29.5;;
15498;SDS011;7851;52.260;6.030;2022-11-15T02:31:36;39.5;;;27;;
15498;SDS011;7851;52.260;6.030;2022-11-15T02:32:38;37.3;;;29.3;;
15498;SDS011;7851;52.260;6.030;2022-11-15T02:33:38;43.2;;;32.2;;
15498;SDS011;7851;52.260;6.030;2022-11-15T02:34:39;32.8;;;27.8;;
15498;SDS011;7851;52.260;6.030;2022-11-15T02:35:37;41.5;;;30.4;;
15498;SDS011;7851;52.260;6.030;2022-11-15T02:36:38;48;;;31.9;;
15498;SDS011;7851;52.260;6.030;2022-11-15T02:37:38;37.4;;;29.8;;
15498;SDS011;7851;52.260;6.030;2022-11-15T02:38:38;39.8;;;30.6;;
15498;SDS011;7851;52.260;6.030;2022-11-15T02:39:38;38.9;;;28.9;;
15498;SDS011;7851;52.260;6.030;2022-11-15T02:40:38;38.8;;;30.2;;
15498;SDS011;7851;52.260;6.030;2022-11-15T02:41:38;40.5;;;30.5;;
15498;SDS011;7851;52.260;6.030;2022-11-15T02:42:39;37.1;;;30.5;;
15498;SDS011;7851;52.260;6.030;2022-11-15T02:43:37;40.4;;;30.3;;
15498;SDS011;7851;52.260;6.030;2022-11-15T02:44:36;37.4;;;29.2;;
15498;SDS011;7851;52.260;6.030;2022-11-15T02:45:37;45.9;;;30.7;;
15498;SDS011;7851;52.260;6.030;2022-11-15T02:46:37;39.8;;;29;;
15498;SDS011;7851;52.260;6.030;2022-11-15T02:47:37;41.9;;;33.3;;
15498;SDS011;7851;52.260;6.030;2022-11-15T02:48:36;40.9;;;30.9;;
15498;SDS011;7851;52.260;6.030;2022-11-15T02:49:36;44.3;;;30.8;;
15498;SDS011;7851;52.260;6.030;2022-11-15T02:50:36;45.1;;;32.2;;
15498;SDS011;7851;52.260;6.030;2022-11-15T02:51:36;41.2;;;30.5;;
15498;SDS011;7851;52.260;6.030;2022-11-15T02:52:36;50.5;;;33.1;;
15498;SDS011;7851;52.260;6.030;2022-11-15T02:53:36;39.8;;;31;;
15498;SDS011;7851;52.260;6.030;2022-11-15T02:54:36;49.4;;;33.2;;
15498;SDS011;7851;52.260;6.030;2022-11-15T02:55:36;40.2;;;32.5;;
15498;SDS011;7851;52.260;6.030;2022-11-15T02:56:36;38.2;;;28.9;;
15498;SDS011;7851;52.260;6.030;2022-11-15T02:57:38;38.6;;;28.8;;
15498;SDS011;7851;52.260;6.030;2022-11-15T02:58:45;45.5;;;32.2;;
15498;SDS011;7851;52.260;6.030;2022-11-15T02:59:42;38.3;;;31;;
15498;SDS011;7851;52.260;6.030;2022-11-15T03:00:37;41.2;;;31.2;;
15498;SDS011;7851;52.260;6.030;2022-11-15T03:01:38;40.9;;;31.3;;
15498;SDS011;7851;52.260;6.030;2022-11-15T03:02:39;37.5;;;30.8;;
15498;SDS011;7851;52.260;6.030;2022-11-15T03:03:41;46.3;;;33.6;;
15498;SDS011;7851;52.260;6.030;2022-11-15T03:04:37;37.8;;;31.3;;
15498;SDS011;7851;52.260;6.030;2022-11-15T03:05:37;42.5;;;31.3;;
15498;SDS011;7851;52.260;6.030;2022-11-15T03:06:38;46.2;;;32;;
15498;SDS011;7851;52.260;6.030;2022-11-15T03:07:36;43;;;30.3;;
15498;SDS011;7851;52.260;6.030;2022-11-15T03:08:37;45.8;;;33.2;;
15498;SDS011;7851;52.260;6.030;2022-11-15T03:09:38;51;;;33.3;;
15498;SDS011;7851;52.260;6.030;2022-11-15T03:10:42;37.4;;;30.2;;
15498;SDS011;7851;52.260;6.030;2022-11-15T03:11:37;42.8;;;32.8;;
15498;SDS011;7851;52.260;6.030;2022-11-15T03:12:36;47.4;;;34.4;;
15498;SDS011;7851;52.260;6.030;2022-11-15T03:13:37;44.2;;;33.7;;
15498;SDS011;7851;52.260;6.030;2022-11-15T03:14:36;41;;;32.8;;
15498;SDS011;7851;52.260;6.030;2022-11-15T03:15:37;48;;;35;;
15498;SDS011;7851;52.260;6.030;2022-11-15T03:16:37;43.5;;;32.2;;
15498;SDS011;7851;52.260;6.030;2022-11-15T03:17:37;47.9;;;32.8;;
15498;SDS011;7851;52.260;6.030;2022-11-15T03:18:37;43.7;;;32.9;;
15498;SDS011;7851;52.260;6.030;2022-11-15T03:19:37;45.7;;;32.3;;
15498;SDS011;7851;52.260;6.030;2022-11-15T03:20:36;42.9;;;33.5;;
15498;SDS011;7851;52.260;6.030;2022-11-15T03:21:36;44.9;;;32;;
15498;SDS011;7851;52.260;6.030;2022-11-15T03:22:36;37.2;;;31.8;;
15498;SDS011;7851;52.260;6.030;2022-11-15T03:23:36;45;;;33.6;;
15498;SDS011;7851;52.260;6.030;2022-11-15T03:24:36;42.8;;;32.4;;
15498;SDS011;7851;52.260;6.030;2022-11-15T03:25:38;39.8;;;30.9;;
15498;SDS011;7851;52.260;6.030;2022-11-15T03:26:36;38.3;;;31.7;;
15498;SDS011;7851;52.260;6.030;2022-11-15T03:27:37;45;;;33.1;;
15498;SDS011;7851;52.260;6.030;2022-11-15T03:28:36;45.9;;;33.9;;
15498;SDS011;7851;52.260;6.030;2022-11-15T03:29:37;38.2;;;31.4;;
15498;SDS011;7851;52.260;6.030;2022-11-15T03:30:36;44.5;;;32.9;;
15498;SDS011;7851;52.260;6.030;2022-11-15T03:31:37;40.7;;;31.5;;
15498;SDS011;7851;52.260;6.030;2022-11-15T03:32:39;41;;;31.2;;
15498;SDS011;7851;52.260;6.030;2022-11-15T03:33:36;39.3;;;32.7;;
15498;SDS011;7851;52.260;6.030;2022-11-15T03:34:38;39.2;;;32.4;;
15498;SDS011;7851;52.260;6.030;2022-11-15T03:35:37;41.6;;;31.8;;
15498;SDS011;7851;52.260;6.030;2022-11-15T03:36:36;35.8;;;31.2;;
15498;SDS011;7851;52.260;6.030;2022-11-15T03:37:37;42.4;;;33;;
15498;SDS011;7851;52.260;6.030;2022-11-15T03:38:36;33.8;;;29.2;;
15498;SDS011;7851;52.260;6.030;2022-11-15T03:39:36;36;;;29.9;;
15498;SDS011;7851;52.260;6.030;2022-11-15T03:40:36;35.8;;;29.2;;
15498;SDS011;7851;52.260;6.030;2022-11-15T03:41:38;33.9;;;28.6;;
15498;SDS011;7851;52.260;6.030;2022-11-15T03:42:37;35.8;;;29.5;;
15498;SDS011;7851;52.260;6.030;2022-11-15T03:43:38;38.6;;;30.6;;
15498;SDS011;7851;52.260;6.030;2022-11-15T03:44:38;34.9;;;30.6;;
15498;SDS011;7851;52.260;6.030;2022-11-15T03:45:37;39.1;;;30.4;;
15498;SDS011;7851;52.260;6.030;2022-11-15T03:46:37;36.6;;;29.4;;
15498;SDS011;7851;52.260;6.030;2022-11-15T03:47:38;38.1;;;30.5;;
15498;SDS011;7851;52.260;6.030;2022-11-15T03:48:37;35.6;;;31;;
15498;SDS011;7851;52.260;6.030;2022-11-15T03:49:36;34.8;;;29.5;;
15498;SDS011;7851;52.260;6.030;2022-11-15T03:50:36;35.5;;;29.8;;
15498;SDS011;7851;52.260;6.030;2022-11-15T03:51:36;32.9;;;27.1;;
15498;SDS011;7851;52.260;6.030;2022-11-15T03:52:36;39.1;;;29.8;;
15498;SDS011;7851;52.260;6.030;2022-11-15T03:53:36;33.2;;;28;;
15498;SDS011;7851;52.260;6.030;2022-11-15T03:54:36;36.1;;;27.7;;
15498;SDS011;7851;52.260;6.030;2022-11-15T03:55:36;32.5;;;27.9;;
15498;SDS011;7851;52.260;6.030;2022-11-15T03:56:36;36.4;;;28.1;;
15498;SDS011;7851;52.260;6.030;2022-11-15T03:57:36;31.3;;;27.9;;
15498;SDS011;7851;52.260;6.030;2022-11-15T03:58:36;32.3;;;27.2;;
15498;SDS011;7851;52.260;6.030;2022-11-15T03:59:36;37.3;;;28.2;;
15498;SDS011;7851;52.260;6.030;2022-11-15T04:00:36;30.3;;;27.1;;
15498;SDS011;7851;52.260;6.030;2022-11-15T04:01:36;33.1;;;27;;
15498;SDS011;7851;52.260;6.030;2022-11-15T04:02:36;32.9;;;26.3;;
15498;SDS011;7851;52.260;6.030;2022-11-15T04:03:36;29.8;;;26.5;;
15498;SDS011;7851;52.260;6.030;2022-11-15T04:04:36;33.4;;;26.1;;
15498;SDS011;7851;52.260;6.030;2022-11-15T04:05:36;34.2;;;26.3;;
15498;SDS011;7851;52.260;6.030;2022-11-15T04:06:36;29.7;;;24.6;;
15498;SDS011;7851;52.260;6.030;2022-11-15T04:07:36;32;;;25.9;;
15498;SDS011;7851;52.260;6.030;2022-11-15T04:08:36;30.1;;;25.7;;
15498;SDS011;7851;52.260;6.030;2022-11-15T04:09:36;33.1;;;27;;
15498;SDS011;7851;52.260;6.030;2022-11-15T04:10:36;29;;;25.5;;
15498;SDS011;7851;52.260;6.030;2022-11-15T04:11:36;33.1;;;26.2;;
15498;SDS011;7851;52.260;6.030;2022-11-15T04:12:37;32.2;;;26.7;;
15498;SDS011;7851;52.260;6.030;2022-11-15T04:13:36;31.6;;;26.6;;
15498;SDS011;7851;52.260;6.030;2022-11-15T04:14:36;37.4;;;26.5;;
15498;SDS011;7851;52.260;6.030;2022-11-15T04:15:36;32.9;;;27.3;;
15498;SDS011;7851;52.260;6.030;2022-11-15T04:16:36;32;;;26.7;;
15498;SDS011;7851;52.260;6.030;2022-11-15T04:17:37;37.4;;;28;;
15498;SDS011;7851;52.260;6.030;2022-11-15T04:18:36;29.9;;;26.2;;
15498;SDS011;7851;52.260;6.030;2022-11-15T04:19:36;34.9;;;27.9;;
15498;SDS011;7851;52.260;6.030;2022-11-15T04:20:36;29.6;;;25.2;;
15498;SDS011;7851;52.260;6.030;2022-11-15T04:21:36;35;;;27.8;;
15498;SDS011;7851;52.260;6.030;2022-11-15T04:22:36;34.6;;;30.1;;
15498;SDS011;7851;52.260;6.030;2022-11-15T04:23:36;33.5;;;27.5;;
15498;SDS011;7851;52.260;6.030;2022-11-15T04:24:36;30.3;;;26.8;;
15498;SDS011;7851;52.260;6.030;2022-11-15T04:25:36;37.2;;;27.1;;
15498;SDS011;7851;52.260;6.030;2022-11-15T04:26:36;31.9;;;26.9;;
15498;SDS011;7851;52.260;6.030;2022-11-15T04:27:36;33.4;;;27.3;;
15498;SDS011;7851;52.260;6.030;2022-11-15T04:28:36;34.7;;;26.5;;
15498;SDS011;7851;52.260;6.030;2022-11-15T04:29:36;38.1;;;27.9;;
15498;SDS011;7851;52.260;6.030;2022-11-15T04:30:36;37.5;;;27.7;;
15498;SDS011;7851;52.260;6.030;2022-11-15T04:31:36;37.3;;;27.4;;
15498;SDS011;7851;52.260;6.030;2022-11-15T04:32:36;33.5;;;28.2;;
15498;SDS011;7851;52.260;6.030;2022-11-15T04:33:36;38.7;;;26.8;;
15498;SDS011;7851;52.260;6.030;2022-11-15T04:34:36;39.1;;;29.9;;
15498;SDS011;7851;52.260;6.030;2022-11-15T04:35:36;35.1;;;26.6;;
15498;SDS011;7851;52.260;6.030;2022-11-15T04:36:36;36.5;;;28.6;;
15498;SDS011;7851;52.260;6.030;2022-11-15T04:37:36;35.2;;;28.7;;
15498;SDS011;7851;52.260;6.030;2022-11-15T04:38:36;39.2;;;29.3;;
15498;SDS011;7851;52.260;6.030;2022-11-15T04:39:36;48.9;;;29;;
15498;SDS011;7851;52.260;6.030;2022-11-15T04:40:36;34.4;;;27.6;;
15498;SDS011;7851;52.260;6.030;2022-11-15T04:41:36;41.8;;;29.4;;
15498;SDS011;7851;52.260;6.030;2022-11-15T04:42:36;42.7;;;29;;
15498;SDS011;7851;52.260;6.030;2022-11-15T04:43:36;32.4;;;25.9;;
15498;SDS011;7851;52.260;6.030;2022-11-15T04:44:36;33.4;;;28;;
15498;SDS011;7851;52.260;6.030;2022-11-15T04:45:36;36.8;;;29.1;;
15498;SDS011;7851;52.260;6.030;2022-11-15T04:46:36;38.3;;;29.1;;
15498;SDS011;7851;52.260;6.030;2022-11-15T04:47:36;41.1;;;29.5;;
15498;SDS011;7851;52.260;6.030;2022-11-15T04:48:37;35.8;;;28.4;;
15498;SDS011;7851;52.260;6.030;2022-11-15T04:49:37;36.6;;;28.5;;
15498;SDS011;7851;52.260;6.030;2022-11-15T04:50:37;36.2;;;27.6;;
15498;SDS011;7851;52.260;6.030;2022-11-15T04:51:37;35.9;;;28.1;;
15498;SDS011;7851;52.260;6.030;2022-11-15T04:52:37;33.4;;;28.5;;
15498;SDS011;7851;52.260;6.030;2022-11-15T04:53:37;41.8;;;30.5;;
15498;SDS011;7851;52.260;6.030;2022-11-15T04:54:37;34.9;;;29.2;;
15498;SDS011;7851;52.260;6.030;2022-11-15T04:55:37;40.5;;;28.4;;
15498;SDS011;7851;52.260;6.030;2022-11-15T04:56:37;34;;;27.6;;
15498;SDS011;7851;52.260;6.030;2022-11-15T04:57:37;38;;;28.3;;
15498;SDS011;7851;52.260;6.030;2022-11-15T04:58:37;39.6;;;31.5;;
15498;SDS011;7851;52.260;6.030;2022-11-15T04:59:37;36.2;;;29.4;;
15498;SDS011;7851;52.260;6.030;2022-11-15T05:00:37;42;;;31.6;;
15498;SDS011;7851;52.260;6.030;2022-11-15T05:01:37;39.6;;;29.5;;
15498;SDS011;7851;52.260;6.030;2022-11-15T05:02:37;33.9;;;28.2;;
15498;SDS011;7851;52.260;6.030;2022-11-15T05:03:37;37.5;;;30.8;;
15498;SDS011;7851;52.260;6.030;2022-11-15T05:04:37;38.6;;;30.4;;
15498;SDS011;7851;52.260;6.030;2022-11-15T05:05:37;37;;;28.7;;
15498;SDS011;7851;52.260;6.030;2022-11-15T05:06:37;38.6;;;29.2;;
15498;SDS011;7851;52.260;6.030;2022-11-15T05:07:37;38.9;;;29.7;;
15498;SDS011;7851;52.260;6.030;2022-11-15T05:08:37;32.3;;;28.5;;
15498;SDS011;7851;52.260;6.030;2022-11-15T05:09:37;36.3;;;29.9;;
15498;SDS011;7851;52.260;6.030;2022-11-15T05:10:37;39.1;;;30.7;;
15498;SDS011;7851;52.260;6.030;2022-11-15T05:11:37;38.8;;;30.6;;
15498;SDS011;7851;52.260;6.030;2022-11-15T05:12:37;36.7;;;30.1;;
15498;SDS011;7851;52.260;6.030;2022-11-15T05:13:37;36.3;;;29.2;;
15498;SDS011;7851;52.260;6.030;2022-11-15T05:14:37;35.4;;;28.3;;
15498;SDS011;7851;52.260;6.030;2022-11-15T05:15:37;37.4;;;29.7;;
15498;SDS011;7851;52.260;6.030;2022-11-15T05:16:37;33.5;;;29.4;;
15498;SDS011;7851;52.260;6.030;2022-11-15T05:17:37;39.1;;;30.3;;
15498;SDS011;7851;52.260;6.030;2022-11-15T05:18:37;40.6;;;31.7;;
15498;SDS011;7851;52.260;6.030;2022-11-15T05:19:37;36.7;;;30.8;;
15498;SDS011;7851;52.260;6.030;2022-11-15T05:20:37;39.4;;;29.6;;
15498;SDS011;7851;52.260;6.030;2022-11-15T05:21:37;33.2;;;29.1;;
15498;SDS011;7851;52.260;6.030;2022-11-15T05:22:37;40.8;;;29;;
15498;SDS011;7851;52.260;6.030;2022-11-15T05:23:37;35.8;;;30.3;;
15498;SDS011;7851;52.260;6.030;2022-11-15T05:24:37;35.4;;;29.6;;
15498;SDS011;7851;52.260;6.030;2022-11-15T05:25:37;40.3;;;29.1;;
15498;SDS011;7851;52.260;6.030;2022-11-15T05:26:37;32.2;;;28.4;;
15498;SDS011;7851;52.260;6.030;2022-11-15T05:27:37;38.3;;;28.8;;
15498;SDS011;7851;52.260;6.030;2022-11-15T05:28:37;37.7;;;30.9;;
15498;SDS011;7851;52.260;6.030;2022-11-15T05:29:37;44.1;;;32.1;;
15498;SDS011;7851;52.260;6.030;2022-11-15T05:30:37;39.9;;;31.2;;
15498;SDS011;7851;52.260;6.030;2022-11-15T05:31:38;35.8;;;29;;
15498;SDS011;7851;52.260;6.030;2022-11-15T05:32:37;35.5;;;30;;
15498;SDS011;7851;52.260;6.030;2022-11-15T05:33:37;39.4;;;29;;
15498;SDS011;7851;52.260;6.030;2022-11-15T05:34:37;38.3;;;31.7;;
15498;SDS011;7851;52.260;6.030;2022-11-15T05:35:38;38.5;;;30.5;;
15498;SDS011;7851;52.260;6.030;2022-11-15T05:36:37;43.1;;;31.3;;
15498;SDS011;7851;52.260;6.030;2022-11-15T05:37:37;36.4;;;30.8;;
15498;SDS011;7851;52.260;6.030;2022-11-15T05:38:37;38.6;;;30.3;;
15498;SDS011;7851;52.260;6.030;2022-11-15T05:39:37;37.8;;;31.7;;
15498;SDS011;7851;52.260;6.030;2022-11-15T05:40:37;36.9;;;29.8;;
15498;SDS011;7851;52.260;6.030;2022-11-15T05:41:38;36.2;;;31.3;;
15498;SDS011;7851;52.260;6.030;2022-11-15T05:42:37;46.1;;;31.5;;
15498;SDS011;7851;52.260;6.030;2022-11-15T05:43:37;38.2;;;31.2;;
15498;SDS011;7851;52.260;6.030;2022-11-15T05:44:37;35;;;29.7;;
15498;SDS011;7851;52.260;6.030;2022-11-15T05:45:37;41.4;;;31;;
15498;SDS011;7851;52.260;6.030;2022-11-15T05:46:37;38.9;;;30.6;;
15498;SDS011;7851;52.260;6.030;2022-11-15T05:47:37;32;;;28.4;;
15498;SDS011;7851;52.260;6.030;2022-11-15T05:48:37;36.5;;;30.9;;
15498;SDS011;7851;52.260;6.030;2022-11-15T05:49:37;41.5;;;29.4;;
15498;SDS011;7851;52.260;6.030;2022-11-15T05:50:38;39.3;;;30.8;;
15498;SDS011;7851;52.260;6.030;2022-11-15T05:51:37;34.8;;;29;;
15498;SDS011;7851;52.260;6.030;2022-11-15T05:52:37;35.1;;;29.4;;
15498;SDS011;7851;52.260;6.030;2022-11-15T05:53:37;35.9;;;30.1;;
15498;SDS011;7851;52.260;6.030;2022-11-15T05:54:37;42;;;32.3;;
15498;SDS011;7851;52.260;6.030;2022-11-15T05:55:37;37.1;;;31.4;;
15498;SDS011;7851;52.260;6.030;2022-11-15T05:56:37;35.6;;;31.2;;
15498;SDS011;7851;52.260;6.030;2022-11-15T05:57:37;37;;;31.2;;
15498;SDS011;7851;52.260;6.030;2022-11-15T05:58:37;35;;;31.2;;
15498;SDS011;7851;52.260;6.030;2022-11-15T05:59:37;36.4;;;29.3;;
15498;SDS011;7851;52.260;6.030;2022-11-15T06:00:37;37.7;;;30.8;;
15498;SDS011;7851;52.260;6.030;2022-11-15T06:01:37;44.8;;;30.4;;
15498;SDS011;7851;52.260;6.030;2022-11-15T06:02:37;38.9;;;32.2;;
15498;SDS011;7851;52.260;6.030;2022-11-15T06:03:37;39;;;31;;
15498;SDS011;7851;52.260;6.030;2022-11-15T06:04:37;37.2;;;28.5;;
15498;SDS011;7851;52.260;6.030;2022-11-15T06:05:37;39;;;30.7;;
15498;SDS011;7851;52.260;6.030;2022-11-15T06:06:37;38.3;;;32.3;;
15498;SDS011;7851;52.260;6.030;2022-11-15T06:07:37;33.7;;;29.5;;
15498;SDS011;7851;52.260;6.030;2022-11-15T06:08:37;38.6;;;29.9;;
15498;SDS011;7851;52.260;6.030;2022-11-15T06:09:37;41.1;;;29.7;;
15498;SDS011;7851;52.260;6.030;2022-11-15T06:10:37;33.8;;;28.6;;